createdAt,value
2019-01-25T00:01:35.739Z,90.93
2019-01-25T00:04:05.305Z,85.07
2019-01-25T00:06:34.872Z,88.33
2019-01-25T00:09:06.743Z,81.40
2019-01-25T00:11:36.302Z,82.73
2019-01-25T00:14:06.339Z,88.47
2019-01-25T00:16:35.824Z,88.30
2019-01-25T00:19:06.470Z,87.17
2019-01-25T00:21:35.906Z,89.57
2019-01-25T00:24:05.844Z,84.37
2019-01-25T00:26:35.330Z,90.07
2019-01-25T00:29:04.856Z,83.47
2019-01-25T00:31:34.315Z,84.67
2019-01-25T00:34:03.794Z,90.83
2019-01-25T00:36:40.137Z,88.90
2019-01-25T00:39:09.617Z,84.33
2019-01-25T00:41:39.104Z,85.27
2019-01-25T00:44:08.535Z,90.10
2019-01-25T00:46:37.995Z,91.63
2019-01-25T00:49:07.427Z,90.17
2019-01-25T00:51:36.963Z,87.67
2019-01-25T00:54:06.798Z,82.63
2019-01-25T00:56:36.230Z,90.67
2019-01-25T00:59:06.159Z,86.43
2019-01-25T01:01:35.633Z,89.73
2019-01-25T01:04:05.200Z,89.43
2019-01-25T01:06:34.656Z,93.03
2019-01-25T01:09:05.732Z,89.07
2019-01-25T01:11:35.201Z,87.93
2019-01-25T01:14:17.732Z,90.13
2019-01-25T01:16:47.246Z,91.97
2019-01-25T01:19:29.631Z,90.73
2019-01-25T01:21:59.084Z,90.50
2019-01-25T01:24:28.517Z,87.93
2019-01-25T01:26:57.970Z,92.33
2019-01-25T01:29:27.502Z,95.63
2019-01-25T01:31:56.928Z,93.80
2019-01-25T01:34:26.429Z,86.90
2019-01-25T01:36:55.903Z,98.13
2019-01-25T01:39:25.391Z,94.63
2019-01-25T01:41:54.789Z,91.20
2019-01-25T01:44:24.186Z,99.27
2019-01-25T01:46:54.923Z,98.47
2019-01-25T01:49:24.565Z,95.57
2019-01-25T01:51:54.024Z,98.53
2019-01-25T01:54:23.668Z,92.23
2019-01-25T01:56:53.169Z,98.47
2019-01-25T01:59:22.632Z,93.00
2019-01-25T02:01:52.115Z,98.30
2019-01-25T02:04:21.556Z,88.00
2019-01-25T02:06:51.025Z,92.67
2019-01-25T02:09:20.467Z,91.00
2019-01-25T02:11:49.901Z,93.93
2019-01-25T02:14:19.347Z,101.43
2019-01-25T02:16:48.734Z,95.83
2019-01-25T02:19:18.163Z,97.63
2019-01-25T02:21:47.619Z,95.83
2019-01-25T02:24:17.037Z,94.97
2019-01-25T02:26:46.436Z,109.53
2019-01-25T02:29:15.924Z,104.67
2019-01-25T02:31:45.408Z,97.90
2019-01-25T02:34:14.857Z,93.13
2019-01-25T02:36:44.346Z,99.67
2019-01-25T02:39:13.746Z,101.33
2019-01-25T02:41:43.216Z,98.17
2019-01-25T02:44:12.663Z,105.20
2019-01-25T02:46:42.131Z,103.03
2019-01-25T02:49:11.610Z,101.73
2019-01-25T02:51:40.983Z,103.20
2019-01-25T02:54:10.388Z,105.70
2019-01-25T02:56:39.885Z,122.80
2019-01-25T02:59:09.318Z,105.13
2019-01-25T03:01:38.753Z,111.03
2019-01-25T03:04:08.605Z,103.37
2019-01-25T03:06:38.106Z,102.20
2019-01-25T03:09:10.430Z,109.20
2019-01-25T03:11:39.891Z,105.23
2019-01-25T03:14:09.372Z,110.80
2019-01-25T03:16:38.855Z,111.70
2019-01-25T03:19:08.300Z,110.27
2019-01-25T03:21:37.751Z,111.13
2019-01-25T03:24:07.352Z,111.33
2019-01-25T03:26:36.919Z,107.47
2019-01-25T03:29:06.356Z,111.70
2019-01-25T03:31:37.762Z,108.30
2019-01-25T03:34:06.858Z,119.57
2019-01-25T03:36:36.291Z,103.93
2019-01-25T03:39:09.169Z,104.53
2019-01-25T03:41:38.622Z,119.40
2019-01-25T03:44:08.062Z,114.70
2019-01-25T03:46:37.606Z,110.00
2019-01-25T03:49:07.101Z,106.70
2019-01-25T03:51:36.592Z,108.57
2019-01-25T03:54:06.220Z,107.17
2019-01-25T03:56:35.693Z,98.37
2019-01-25T03:59:05.364Z,108.33
2019-01-25T04:01:34.875Z,110.63
2019-01-25T04:04:04.536Z,112.97
2019-01-25T04:06:33.938Z,109.50
2019-01-25T04:09:04.916Z,108.73
2019-01-25T04:11:34.346Z,115.87
2019-01-25T04:14:03.902Z,107.37
2019-01-25T04:16:33.334Z,116.27
2019-01-25T04:19:02.801Z,101.63
2019-01-25T04:21:32.253Z,105.10
2019-01-25T04:24:01.721Z,114.63
2019-01-25T04:26:31.281Z,111.60
2019-01-25T04:29:00.727Z,110.80
2019-01-25T04:31:30.249Z,111.37
2019-01-25T04:33:59.732Z,115.40
2019-01-25T04:36:29.161Z,128.67
2019-01-25T04:38:58.614Z,112.23
2019-01-25T04:41:28.067Z,133.27
2019-01-25T04:43:57.511Z,130.40
2019-01-25T04:46:26.926Z,108.57
2019-01-25T04:48:56.367Z,122.37
2019-01-25T04:51:25.742Z,119.20
2019-01-25T04:53:55.108Z,116.37
2019-01-25T04:56:24.662Z,123.97
2019-01-25T04:58:54.076Z,130.70
2019-01-25T05:01:23.520Z,110.57
2019-01-25T05:03:52.952Z,119.90
2019-01-25T05:06:22.400Z,130.40
2019-01-25T05:08:51.805Z,119.53
2019-01-25T05:11:21.202Z,120.80
2019-01-25T05:13:50.606Z,109.07
2019-01-25T05:16:20.053Z,125.83
2019-01-25T05:18:49.559Z,125.30
2019-01-25T05:21:26.059Z,124.40
2019-01-25T05:23:55.487Z,115.20
2019-01-25T05:26:24.847Z,117.73
2019-01-25T05:28:54.391Z,115.70
2019-01-25T05:31:27.141Z,115.43
2019-01-25T05:33:59.277Z,130.57
2019-01-25T05:36:28.750Z,117.93
2019-01-25T05:38:58.148Z,114.93
2019-01-25T05:41:28.463Z,117.33
2019-01-25T05:43:58.107Z,129.33
2019-01-25T05:46:27.563Z,128.80
2019-01-25T05:48:56.948Z,136.13
2019-01-25T05:51:33.431Z,140.07
2019-01-25T05:53:57.469Z,140.97
2019-01-25T05:56:26.844Z,124.13
2019-01-25T05:58:56.249Z,148.87
2019-01-25T06:01:26.461Z,130.53
2019-01-25T06:03:55.933Z,136.27
2019-01-25T06:06:25.356Z,155.90
2019-01-25T06:08:54.784Z,127.33
2019-01-25T06:11:24.243Z,140.83
2019-01-25T06:13:53.545Z,137.23
2019-01-25T06:16:22.933Z,133.10
2019-01-25T06:18:52.395Z,154.30
2019-01-25T06:21:21.834Z,155.53
2019-01-25T06:23:55.088Z,171.50
2019-01-25T06:26:24.499Z,151.00
2019-01-25T06:28:53.910Z,132.93
2019-01-25T06:31:23.361Z,159.57
2019-01-25T06:33:52.832Z,143.97
2019-01-25T06:36:22.238Z,138.17
2019-01-25T06:38:51.670Z,145.13
2019-01-25T06:41:21.065Z,146.57
2019-01-25T06:43:50.518Z,138.63
2019-01-25T06:46:19.883Z,150.63
2019-01-25T06:48:49.336Z,141.03
2019-01-25T06:51:18.734Z,151.47
2019-01-25T06:53:48.154Z,143.67
2019-01-25T06:56:17.631Z,143.00
2019-01-25T06:59:04.552Z,171.43
2019-01-25T07:01:42.355Z,171.83
2019-01-25T07:04:11.754Z,138.37
2019-01-25T07:06:41.167Z,144.30
2019-01-25T07:09:12.462Z,154.40
2019-01-25T07:11:42.412Z,150.80
2019-01-25T07:14:12.053Z,140.57
2019-01-25T07:16:41.460Z,162.63
2019-01-25T07:19:10.969Z,160.37
2019-01-25T07:21:40.355Z,152.53
2019-01-25T07:24:09.811Z,149.13
2019-01-25T07:26:39.110Z,136.80
2019-01-25T07:29:08.522Z,149.23
2019-01-25T07:31:38.157Z,145.83
2019-01-25T07:34:07.842Z,144.40
2019-01-25T07:36:56.358Z,151.37
2019-01-25T07:39:28.989Z,143.47
2019-01-25T07:41:59.633Z,146.60
2019-01-25T07:44:29.406Z,149.63
2019-01-25T07:46:58.919Z,151.33
2019-01-25T07:49:28.447Z,146.37
2019-01-25T07:52:21.925Z,147.50
2019-01-25T07:54:51.292Z,156.40
2019-01-25T07:57:39.697Z,147.47
2019-01-25T08:00:09.356Z,150.67
2019-01-25T08:02:38.725Z,158.03
2019-01-25T08:05:10.539Z,163.40
2019-01-25T08:07:40.194Z,148.50
2019-01-25T08:10:11.978Z,163.60
2019-01-25T08:12:41.387Z,147.73
2019-01-25T08:15:13.457Z,144.97
2019-01-25T08:17:42.857Z,145.17
2019-01-25T08:20:12.322Z,156.23
2019-01-25T08:22:41.706Z,164.53
2019-01-25T08:25:11.229Z,148.60
2019-01-25T08:27:40.649Z,164.17
2019-01-25T08:30:13.146Z,153.77
2019-01-25T08:32:42.665Z,156.67
2019-01-25T08:35:15.539Z,162.20
2019-01-25T08:37:45.093Z,164.33
2019-01-25T08:40:14.568Z,163.67
2019-01-25T08:42:44.163Z,183.40
2019-01-25T08:45:13.960Z,151.60
2019-01-25T08:47:43.535Z,161.77
2019-01-25T08:50:15.957Z,206.07
2019-01-25T08:52:45.388Z,172.60
2019-01-25T08:55:15.070Z,175.13
2019-01-25T08:57:44.572Z,175.37
2019-01-25T09:00:33.076Z,163.17
2019-01-25T09:03:02.517Z,171.07
2019-01-25T09:05:31.979Z,169.10
2019-01-25T09:08:01.384Z,161.77
2019-01-25T09:10:30.850Z,169.03
2019-01-25T09:13:00.297Z,175.60
2019-01-25T09:15:30.225Z,182.07
2019-01-25T09:17:59.545Z,167.30
2019-01-25T09:20:28.949Z,169.37
2019-01-25T09:22:58.475Z,159.47
2019-01-25T09:25:27.986Z,149.13
2019-01-25T09:30:50.570Z,155.87
2019-01-25T09:33:19.980Z,164.93
2019-01-25T09:35:49.445Z,155.30
2019-01-25T09:38:18.881Z,164.90
2019-01-25T09:41:00.272Z,157.93
2019-01-25T09:43:29.756Z,160.67
2019-01-25T09:45:59.190Z,159.50
2019-01-25T09:48:28.592Z,164.67
2019-01-25T09:50:58.162Z,161.03
2019-01-25T09:53:27.574Z,167.03
2019-01-25T09:55:56.916Z,157.77
2019-01-25T09:58:26.401Z,156.60
2019-01-25T10:01:02.302Z,156.30
2019-01-25T10:03:31.790Z,170.63
2019-01-25T10:06:01.252Z,155.00
2019-01-25T10:08:30.617Z,162.03
2019-01-25T10:11:00.108Z,158.37
2019-01-25T10:13:29.637Z,163.83
2019-01-25T10:15:59.067Z,172.00
2019-01-25T10:18:28.612Z,154.27
2019-01-25T10:20:58.128Z,176.07
2019-01-25T10:23:27.600Z,172.43
2019-01-25T10:25:57.026Z,164.43
2019-01-25T10:28:26.455Z,152.00
2019-01-25T10:30:55.822Z,163.43
2019-01-25T10:33:25.238Z,149.17
2019-01-25T10:35:54.661Z,150.27
2019-01-25T10:38:24.147Z,136.37
2019-01-25T10:40:53.575Z,137.83
2019-01-25T10:43:23.033Z,141.97
2019-01-25T10:45:52.430Z,146.77
2019-01-25T10:48:21.822Z,137.63
2019-01-25T10:50:51.262Z,135.80
2019-01-25T10:53:20.693Z,131.50
2019-01-25T10:55:50.064Z,128.37
2019-01-25T10:58:19.400Z,125.07
2019-01-25T11:00:48.824Z,129.00
2019-01-25T11:03:18.187Z,133.30
2019-01-25T11:05:47.689Z,123.37
2019-01-25T11:08:17.124Z,119.17
2019-01-25T11:10:46.605Z,114.87
2019-01-25T11:13:16.037Z,109.53
2019-01-25T11:15:45.440Z,92.47
2019-01-25T11:18:16.588Z,73.50
2019-01-25T11:20:45.902Z,76.47
2019-01-25T11:23:15.311Z,68.80
2019-01-25T11:25:44.631Z,72.07
2019-01-25T11:28:14.041Z,65.50
2019-01-25T11:30:43.498Z,71.63
2019-01-25T11:33:12.864Z,70.43
2019-01-25T11:35:42.267Z,62.33
2019-01-25T11:38:11.675Z,65.47
2019-01-25T11:40:43.252Z,69.80
2019-01-25T11:43:12.561Z,71.00
2019-01-25T11:45:42.249Z,72.80
2019-01-25T11:48:14.468Z,65.93
2019-01-25T11:50:43.946Z,72.00
2019-01-25T11:53:13.414Z,77.90
2019-01-25T11:55:42.881Z,78.93
2019-01-25T11:58:12.306Z,69.20
2019-01-25T12:00:44.920Z,72.87
2019-01-25T12:03:14.279Z,74.50
2019-01-25T12:05:43.710Z,77.83
2019-01-25T12:08:13.219Z,87.17
2019-01-25T12:10:42.678Z,81.50
2019-01-25T12:13:16.204Z,85.93
2019-01-25T12:15:44.009Z,85.40
2019-01-25T12:18:13.480Z,79.93
2019-01-25T12:20:42.844Z,85.77
2019-01-25T12:23:12.315Z,83.17
2019-01-25T12:25:41.827Z,75.03
2019-01-25T12:28:11.241Z,79.33
2019-01-25T12:30:41.155Z,75.13
2019-01-25T12:33:11.168Z,84.50
2019-01-25T12:35:44.664Z,82.23
2019-01-25T12:38:14.080Z,84.37
2019-01-25T12:40:43.684Z,87.50
2019-01-25T12:43:13.076Z,86.50
2019-01-25T12:45:42.576Z,78.60
2019-01-25T12:48:11.960Z,83.33
2019-01-25T12:51:05.000Z,81.20
2019-01-25T12:53:35.018Z,79.83
2019-01-25T12:58:54.337Z,76.13
2019-01-25T13:01:23.745Z,80.33
2019-01-25T13:03:53.551Z,70.53
2019-01-25T13:06:22.916Z,74.87
2019-01-25T13:08:52.317Z,74.17
2019-01-25T13:11:21.801Z,71.93
2019-01-25T13:13:51.303Z,67.37
2019-01-25T13:16:20.964Z,73.70
2019-01-25T13:18:50.434Z,75.10
2019-01-25T13:21:20.019Z,71.60
2019-01-25T13:23:49.402Z,66.40
2019-01-25T13:26:18.828Z,66.60
2019-01-25T13:28:48.243Z,74.37
2019-01-25T13:31:17.668Z,64.43
2019-01-25T13:33:50.367Z,74.17
2019-01-25T13:36:48.150Z,74.53
2019-01-25T13:39:37.361Z,70.47
2019-01-25T13:42:06.772Z,75.53
2019-01-25T13:44:51.268Z,72.67
2019-01-25T13:47:20.705Z,80.93
2019-01-25T13:49:52.905Z,73.17
2019-01-25T13:52:34.868Z,80.40
2019-01-25T13:55:04.765Z,74.13
2019-01-25T13:57:34.209Z,80.33
2019-01-25T14:00:04.456Z,73.40
2019-01-25T14:02:34.213Z,68.67
2019-01-25T14:05:03.949Z,67.87
2019-01-25T14:07:33.715Z,73.37
2019-01-25T14:10:03.152Z,66.33
2019-01-25T14:12:32.499Z,69.47
2019-01-25T14:15:02.058Z,64.23
2019-01-25T14:17:31.474Z,71.30
2019-01-25T14:20:00.892Z,72.23
2019-01-25T14:22:30.323Z,73.90
2019-01-25T14:25:00.348Z,63.63
2019-01-25T14:27:29.912Z,70.00
2019-01-25T14:29:59.340Z,66.17
2019-01-25T14:32:28.820Z,72.00
2019-01-25T14:34:58.211Z,62.47
2019-01-25T14:37:27.720Z,68.50
2019-01-25T14:39:57.112Z,72.57
2019-01-25T14:42:27.455Z,72.27
2019-01-25T14:44:56.970Z,74.17
2019-01-25T14:47:26.416Z,65.33
2019-01-25T14:49:55.842Z,64.70
2019-01-25T14:52:25.270Z,64.30
2019-01-25T14:54:54.770Z,70.80
2019-01-25T14:57:24.302Z,71.77
2019-01-25T14:59:53.726Z,69.37
2019-01-25T15:02:23.186Z,77.67
2019-01-25T15:04:54.125Z,67.67
2019-01-25T15:07:23.525Z,70.90
2019-01-25T15:09:52.945Z,69.47
2019-01-25T15:12:22.345Z,67.80
2019-01-25T15:14:51.730Z,73.20
2019-01-25T15:17:21.114Z,73.10
2019-01-25T15:19:50.520Z,65.43
2019-01-25T15:22:19.905Z,65.90
2019-01-25T15:24:49.419Z,71.57
2019-01-25T15:27:18.913Z,64.47
2019-01-25T15:29:48.338Z,66.77
2019-01-25T15:32:17.886Z,73.60
2019-01-25T15:34:47.381Z,71.07
2019-01-25T15:37:16.802Z,74.07
2019-01-25T15:39:46.418Z,67.03
2019-01-25T15:42:15.806Z,76.90
2019-01-25T15:44:45.618Z,64.40
2019-01-25T15:47:15.360Z,76.50
2019-01-25T15:49:44.902Z,71.07
2019-01-25T15:52:14.342Z,68.23
2019-01-25T15:54:43.774Z,78.83
2019-01-25T15:57:13.211Z,84.83
2019-01-25T15:59:42.644Z,69.20
2019-01-25T16:02:12.071Z,80.60
2019-01-25T16:04:41.512Z,80.07
2019-01-25T16:07:10.929Z,67.50
2019-01-25T16:09:40.352Z,75.80
2019-01-25T16:12:09.827Z,75.27
2019-01-25T16:14:39.303Z,78.83
2019-01-25T16:17:08.772Z,71.73
2019-01-25T16:19:38.183Z,79.50
2019-01-25T16:22:07.578Z,75.50
2019-01-25T16:24:36.972Z,76.57
2019-01-25T16:27:06.401Z,73.90
2019-01-25T16:29:35.848Z,82.87
2019-01-25T16:32:05.395Z,84.23
2019-01-25T16:34:34.803Z,80.63
2019-01-25T16:37:04.179Z,79.47
2019-01-25T16:39:33.552Z,80.53
2019-01-25T16:42:02.930Z,78.73
2019-01-25T16:44:32.365Z,105.83
2019-01-25T16:47:01.731Z,308.23
2019-01-25T16:49:31.196Z,76.07
2019-01-25T16:52:00.607Z,74.30
2019-01-25T16:54:30.159Z,70.83
2019-01-25T16:56:59.492Z,78.40
2019-01-25T16:59:28.944Z,76.30
2019-01-25T17:01:58.401Z,68.57
2019-01-25T17:04:27.808Z,67.67
2019-01-25T17:06:57.255Z,83.30
2019-01-25T17:09:26.806Z,70.17
2019-01-25T17:11:56.230Z,76.33
2019-01-25T17:14:33.161Z,73.20
2019-01-25T17:16:57.094Z,77.27
2019-01-25T17:19:26.544Z,77.97
2019-01-25T17:21:55.978Z,79.60
2019-01-25T17:24:25.433Z,76.67
2019-01-25T17:26:54.939Z,79.17
2019-01-25T17:29:24.416Z,68.93
2019-01-25T17:31:53.880Z,70.33
2019-01-25T17:34:23.352Z,75.30
2019-01-25T17:37:11.966Z,82.80
2019-01-25T17:39:41.427Z,75.90
2019-01-25T17:42:10.905Z,72.60
2019-01-25T17:47:46.143Z,71.60
2019-01-25T17:50:15.779Z,74.60
2019-01-25T17:52:45.138Z,71.60
2019-01-25T17:55:14.987Z,61.50
2019-01-25T17:57:44.412Z,58.40
2019-01-25T18:00:22.109Z,62.27
2019-01-25T18:02:51.624Z,71.63
2019-01-25T18:08:12.236Z,68.20
2019-01-25T18:10:41.784Z,63.53
2019-01-25T18:13:11.195Z,66.10
2019-01-25T18:15:40.582Z,62.10
2019-01-25T18:18:10.336Z,60.30
2019-01-25T18:20:39.716Z,64.37
2019-01-25T18:23:09.181Z,51.40
2019-01-25T18:26:07.915Z,57.57
2019-01-25T18:28:45.161Z,55.47
2019-01-25T18:31:18.426Z,55.90
2019-01-25T18:36:46.800Z,55.47
2019-01-25T18:39:16.293Z,56.40
2019-01-25T18:41:45.687Z,51.57
2019-01-25T18:44:15.345Z,50.07
2019-01-25T18:46:44.786Z,46.57
2019-01-25T18:49:14.222Z,50.10
2019-01-25T18:51:43.651Z,53.50
2019-01-25T18:54:13.030Z,50.03
2019-01-25T18:56:44.186Z,43.47
2019-01-25T18:59:13.618Z,46.63
2019-01-25T19:01:43.092Z,49.57
2019-01-25T19:04:12.495Z,48.17
2019-01-25T19:06:43.910Z,48.97
2019-01-25T19:09:13.051Z,49.87
2019-01-25T19:11:42.558Z,55.13
2019-01-25T19:14:11.950Z,45.90
2019-01-25T19:16:41.365Z,46.30
2019-01-25T19:19:10.732Z,45.57
2019-01-25T19:21:40.170Z,41.43
2019-01-25T19:24:09.587Z,44.03
2019-01-25T19:26:39.036Z,45.40
2019-01-25T19:29:08.494Z,43.57
2019-01-25T19:31:37.933Z,48.97
2019-01-25T19:34:07.357Z,47.27
2019-01-25T19:36:36.838Z,52.50
2019-01-25T19:39:13.450Z,45.53
2019-01-25T19:41:42.878Z,47.53
2019-01-25T19:44:12.432Z,46.77
2019-01-25T19:46:41.899Z,42.80
2019-01-25T19:49:11.328Z,48.63
2019-01-25T19:51:40.608Z,46.20
2019-01-25T19:54:10.169Z,45.20
2019-01-25T19:56:39.672Z,42.40
2019-01-25T19:59:08.998Z,44.80
2019-01-25T20:01:38.500Z,45.13
2019-01-25T20:04:07.880Z,44.37
2019-01-25T20:06:37.457Z,42.37
2019-01-25T20:09:09.852Z,44.43
2019-01-25T20:11:39.283Z,45.77
2019-01-25T20:14:29.414Z,45.23
2019-01-25T20:17:00.023Z,42.67
2019-01-25T20:19:29.440Z,43.17
2019-01-25T20:21:58.828Z,40.00
2019-01-25T20:24:28.288Z,37.50
2019-01-25T20:26:57.692Z,37.10
2019-01-25T20:29:27.196Z,43.93
2019-01-25T20:31:56.680Z,37.53
2019-01-25T20:34:26.091Z,39.80
2019-01-25T20:36:55.535Z,40.20
2019-01-25T20:39:24.962Z,39.60
2019-01-25T20:41:54.390Z,40.13
2019-01-25T20:44:23.695Z,40.37
2019-01-25T20:46:53.096Z,44.20
2019-01-25T20:49:22.549Z,41.67
2019-01-25T20:51:51.926Z,41.17
2019-01-25T20:54:22.464Z,40.23
2019-01-25T20:56:51.869Z,41.30
2019-01-25T20:59:21.465Z,39.03
2019-01-25T21:01:50.938Z,41.80
2019-01-25T21:04:20.377Z,40.17
2019-01-25T21:06:49.813Z,39.80
2019-01-25T21:09:19.282Z,41.23
2019-01-25T21:11:48.668Z,39.73
2019-01-25T21:14:18.098Z,41.60
2019-01-25T21:16:47.599Z,45.23
2019-01-25T21:19:17.011Z,42.47
2019-01-25T21:21:46.411Z,44.37
2019-01-25T21:24:15.838Z,43.80
2019-01-25T21:26:45.261Z,43.07
2019-01-25T21:29:14.640Z,42.77
2019-01-25T21:31:44.099Z,45.90
2019-01-25T21:34:13.527Z,52.43
2019-01-25T21:36:43.015Z,44.53
2019-01-25T21:39:12.441Z,48.27
2019-01-25T21:41:41.899Z,50.10
2019-01-25T21:44:11.348Z,50.30
2019-01-25T21:46:40.772Z,59.00
2019-01-25T21:49:10.428Z,53.53
2019-01-25T21:51:39.791Z,51.63
2019-01-25T21:54:09.194Z,62.37
2019-01-25T21:56:38.674Z,62.57
2019-01-25T21:59:08.032Z,59.20
2019-01-25T22:01:37.584Z,62.27
2019-01-25T22:04:07.084Z,61.17
2019-01-25T22:06:36.536Z,64.03
2019-01-25T22:09:08.642Z,76.80
2019-01-25T22:11:38.020Z,67.23
2019-01-25T22:14:07.434Z,74.57
2019-01-25T22:16:36.898Z,74.93
2019-01-25T22:19:06.314Z,81.60
2019-01-25T22:21:36.958Z,77.87
2019-01-25T22:24:06.521Z,83.33
2019-01-25T22:26:36.359Z,75.60
2019-01-25T22:29:05.810Z,77.93
2019-01-25T22:31:35.188Z,94.60
2019-01-25T22:34:04.765Z,98.20
2019-01-25T22:36:34.195Z,110.43
2019-01-25T22:39:04.859Z,104.90
2019-01-25T22:41:34.351Z,93.50
2019-01-25T22:44:03.821Z,102.10
2019-01-25T22:46:33.370Z,130.60
2019-01-25T22:49:02.783Z,117.67
2019-01-25T22:51:32.247Z,98.37
2019-01-25T22:54:01.695Z,135.50
2019-01-25T22:56:31.567Z,119.33
2019-01-25T22:59:01.011Z,106.20
2019-01-25T23:01:32.815Z,121.60
2019-01-25T23:04:32.753Z,119.37
2019-01-25T23:07:13.413Z,102.10
2019-01-25T23:10:03.189Z,122.13
2019-01-25T23:12:32.615Z,121.77
2019-01-25T23:15:02.183Z,115.80
2019-01-25T23:17:31.987Z,115.93
2019-01-25T23:20:01.358Z,108.20
2019-01-25T23:22:32.428Z,109.93
2019-01-25T23:25:01.876Z,122.00
2019-01-25T23:27:31.283Z,112.27
2019-01-25T23:30:00.737Z,135.50
2019-01-25T23:32:30.177Z,114.67
2019-01-25T23:34:59.557Z,132.00
2019-01-25T23:37:28.916Z,131.20
2019-01-25T23:39:58.279Z,127.90
2019-01-25T23:42:27.691Z,119.93
2019-01-25T23:44:57.051Z,136.10
2019-01-25T23:47:26.479Z,121.00
2019-01-25T23:49:55.785Z,120.47
2019-01-25T23:52:25.205Z,123.70
2019-01-25T23:54:54.621Z,109.23
2019-01-25T23:57:23.942Z,114.93
2019-01-25T23:59:53.358Z,108.30
